sensor_id;sensor_type;location;lat;lon;timestamp;temperature;humidity
4356;DHT22;64374;51.482;7.408;2023-09-18T00:02:37;25.60;99.90
4356;DHT22;64374;51.482;7.408;2023-09-18T00:05:27;25.60;99.90
4356;DHT22;64374;51.482;7.408;2023-09-18T00:08:15;25.60;99.90
4356;DHT22;64374;51.482;7.408;2023-09-18T00:11:01;25.60;99.90
4356;DHT22;64374;51.482;7.408;2023-09-18T00:13:48;25.50;99.90
4356;DHT22;64374;51.482;7.408;2023-09-18T00:16:34;25.70;99.90
4356;DHT22;64374;51.482;7.408;2023-09-18T00:19:41;25.50;99.90
4356;DHT22;64374;51.482;7.408;2023-09-18T00:22:29;25.50;99.90
4356;DHT22;64374;51.482;7.408;2023-09-18T00:24:57;25.50;99.90
4356;DHT22;64374;51.482;7.408;2023-09-18T00:27:35;25.50;99.90
4356;DHT22;64374;51.482;7.408;2023-09-18T00:30:06;25.50;99.90
4356;DHT22;64374;51.482;7.408;2023-09-18T00:32:38;25.50;99.90
4356;DHT22;64374;51.482;7.408;2023-09-18T00:35:07;25.40;99.90
4356;DHT22;64374;51.482;7.408;2023-09-18T00:37:39;25.50;99.90
4356;DHT22;64374;51.482;7.408;2023-09-18T00:40:08;25.40;99.90
4356;DHT22;64374;51.482;7.408;2023-09-18T00:42:37;25.40;99.90
4356;DHT22;64374;51.482;7.408;2023-09-18T00:45:06;25.50;99.90
4356;DHT22;64374;51.482;7.408;2023-09-18T00:47:36;25.50;99.90
4356;DHT22;64374;51.482;7.408;2023-09-18T00:50:07;25.50;99.90
4356;DHT22;64374;51.482;7.408;2023-09-18T00:52:39;25.40;99.90
4356;DHT22;64374;51.482;7.408;2023-09-18T00:55:10;25.40;99.90
4356;DHT22;64374;51.482;7.408;2023-09-18T00:57:38;25.40;99.90
4356;DHT22;64374;51.482;7.408;2023-09-18T01:00:10;25.40;99.90
4356;DHT22;64374;51.482;7.408;2023-09-18T01:02:42;25.40;99.90
4356;DHT22;64374;51.482;7.408;2023-09-18T01:05:12;25.40;99.90
4356;DHT22;64374;51.482;7.408;2023-09-18T01:07:45;25.40;99.90
4356;DHT22;64374;51.482;7.408;2023-09-18T01:10:13;25.30;99.90
4356;DHT22;64374;51.482;7.408;2023-09-18T01:12:48;25.30;99.90
4356;DHT22;64374;51.482;7.408;2023-09-18T01:15:23;25.40;99.90
4356;DHT22;64374;51.482;7.408;2023-09-18T01:17:54;25.40;99.90
4356;DHT22;64374;51.482;7.408;2023-09-18T01:20:22;25.40;99.90
4356;DHT22;64374;51.482;7.408;2023-09-18T01:22:53;25.30;99.90
4356;DHT22;64374;51.482;7.408;2023-09-18T01:25:39;25.40;99.90
4356;DHT22;64374;51.482;7.408;2023-09-18T01:28:26;25.40;99.90
4356;DHT22;64374;51.482;7.408;2023-09-18T01:31:13;25.40;99.90
4356;DHT22;64374;51.482;7.408;2023-09-18T01:34:00;25.30;99.90
4356;DHT22;64374;51.482;7.408;2023-09-18T01:36:49;25.30;99.90
4356;DHT22;64374;51.482;7.408;2023-09-18T01:39:38;25.30;99.90
4356;DHT22;64374;51.482;7.408;2023-09-18T01:42:26;25.30;99.90
4356;DHT22;64374;51.482;7.408;2023-09-18T01:45:14;25.20;99.90
4356;DHT22;64374;51.482;7.408;2023-09-18T01:48:00;25.10;99.90
4356;DHT22;64374;51.482;7.408;2023-09-18T01:50:50;25.20;99.90
4356;DHT22;64374;51.482;7.408;2023-09-18T01:53:37;25.10;99.90
4356;DHT22;64374;51.482;7.408;2023-09-18T01:56:25;25.10;99.90
4356;DHT22;64374;51.482;7.408;2023-09-18T01:59:12;25.00;99.90
4356;DHT22;64374;51.482;7.408;2023-09-18T02:01:59;25.00;99.90
4356;DHT22;64374;51.482;7.408;2023-09-18T02:04:48;25.00;99.90
4356;DHT22;64374;51.482;7.408;2023-09-18T02:07:52;25.00;99.90
4356;DHT22;64374;51.482;7.408;2023-09-18T02:10:38;25.00;99.90
4356;DHT22;64374;51.482;7.408;2023-09-18T02:13:29;25.00;99.90
4356;DHT22;64374;51.482;7.408;2023-09-18T02:16:16;25.00;99.90
4356;DHT22;64374;51.482;7.408;2023-09-18T02:19:02;25.00;99.90
4356;DHT22;64374;51.482;7.408;2023-09-18T02:21:49;25.10;99.90
4356;DHT22;64374;51.482;7.408;2023-09-18T02:24:36;25.00;99.90
4356;DHT22;64374;51.482;7.408;2023-09-18T02:27:23;25.10;99.90
4356;DHT22;64374;51.482;7.408;2023-09-18T02:30:12;25.10;99.90
4356;DHT22;64374;51.482;7.408;2023-09-18T02:32:58;25.10;99.90
4356;DHT22;64374;51.482;7.408;2023-09-18T02:35:49;25.00;99.90
4356;DHT22;64374;51.482;7.408;2023-09-18T02:38:36;25.00;99.90
4356;DHT22;64374;51.482;7.408;2023-09-18T02:41:23;25.10;99.90
4356;DHT22;64374;51.482;7.408;2023-09-18T02:44:09;25.00;99.90
4356;DHT22;64374;51.482;7.408;2023-09-18T02:46:57;25.00;99.90
4356;DHT22;64374;51.482;7.408;2023-09-18T02:49:44;24.90;99.90
4356;DHT22;64374;51.482;7.408;2023-09-18T02:52:32;24.90;99.90
4356;DHT22;64374;51.482;7.408;2023-09-18T02:55:19;24.90;99.90
4356;DHT22;64374;51.482;7.408;2023-09-18T02:58:07;24.80;99.90
4356;DHT22;64374;51.482;7.408;2023-09-18T03:00:55;24.70;99.90
4356;DHT22;64374;51.482;7.408;2023-09-18T03:03:44;24.70;99.90
4356;DHT22;64374;51.482;7.408;2023-09-18T03:06:33;24.70;99.90
4356;DHT22;64374;51.482;7.408;2023-09-18T03:09:20;24.60;99.90
4356;DHT22;64374;51.482;7.408;2023-09-18T03:12:08;24.70;99.90
4356;DHT22;64374;51.482;7.408;2023-09-18T03:14:54;24.50;99.90
4356;DHT22;64374;51.482;7.408;2023-09-18T03:17:41;24.50;99.90
4356;DHT22;64374;51.482;7.408;2023-09-18T03:20:30;24.20;99.90
4356;DHT22;64374;51.482;7.408;2023-09-18T03:23:17;24.00;99.90
4356;DHT22;64374;51.482;7.408;2023-09-18T03:26:03;24.20;99.90
4356;DHT22;64374;51.482;7.408;2023-09-18T03:28:51;24.30;99.90
4356;DHT22;64374;51.482;7.408;2023-09-18T03:31:37;24.40;99.90
4356;DHT22;64374;51.482;7.408;2023-09-18T03:34:25;24.40;99.90
4356;DHT22;64374;51.482;7.408;2023-09-18T03:37:13;24.00;99.90
4356;DHT22;64374;51.482;7.408;2023-09-18T03:40:00;24.20;99.90
4356;DHT22;64374;51.482;7.408;2023-09-18T03:42:48;24.40;99.90
4356;DHT22;64374;51.482;7.408;2023-09-18T03:45:35;24.20;99.90
4356;DHT22;64374;51.482;7.408;2023-09-18T03:48:23;24.10;99.90
4356;DHT22;64374;51.482;7.408;2023-09-18T03:51:09;23.80;99.90
4356;DHT22;64374;51.482;7.408;2023-09-18T03:53:59;23.90;99.90
4356;DHT22;64374;51.482;7.408;2023-09-18T03:56:45;24.00;99.90
4356;DHT22;64374;51.482;7.408;2023-09-18T03:59:32;24.20;99.90
4356;DHT22;64374;51.482;7.408;2023-09-18T04:02:21;24.50;99.90
4356;DHT22;64374;51.482;7.408;2023-09-18T04:05:09;24.50;99.90
4356;DHT22;64374;51.482;7.408;2023-09-18T04:07:56;24.50;99.90
4356;DHT22;64374;51.482;7.408;2023-09-18T04:10:45;24.40;99.90
4356;DHT22;64374;51.482;7.408;2023-09-18T04:13:32;24.10;99.90
4356;DHT22;64374;51.482;7.408;2023-09-18T04:16:19;24.40;99.90
4356;DHT22;64374;51.482;7.408;2023-09-18T04:19:07;24.60;99.90
4356;DHT22;64374;51.482;7.408;2023-09-18T04:21:55;24.70;99.90
4356;DHT22;64374;51.482;7.408;2023-09-18T04:24:41;24.80;99.90
4356;DHT22;64374;51.482;7.408;2023-09-18T04:27:30;24.70;99.90
4356;DHT22;64374;51.482;7.408;2023-09-18T04:30:16;24.00;99.90
4356;DHT22;64374;51.482;7.408;2023-09-18T04:33:05;24.00;99.90
4356;DHT22;64374;51.482;7.408;2023-09-18T04:35:34;23.60;99.90
4356;DHT22;64374;51.482;7.408;2023-09-18T04:38:03;23.80;99.90
4356;DHT22;64374;51.482;7.408;2023-09-18T04:40:32;23.60;99.90
4356;DHT22;64374;51.482;7.408;2023-09-18T04:43:02;23.20;99.90
4356;DHT22;64374;51.482;7.408;2023-09-18T04:45:31;23.00;99.90
4356;DHT22;64374;51.482;7.408;2023-09-18T04:47:59;23.40;99.90
4356;DHT22;64374;51.482;7.408;2023-09-18T04:50:28;23.60;99.90
4356;DHT22;64374;51.482;7.408;2023-09-18T04:52:56;23.50;99.90
4356;DHT22;64374;51.482;7.408;2023-09-18T04:55:25;23.70;99.90
4356;DHT22;64374;51.482;7.408;2023-09-18T04:57:54;23.40;99.90
4356;DHT22;64374;51.482;7.408;2023-09-18T05:00:27;23.00;99.90
4356;DHT22;64374;51.482;7.408;2023-09-18T05:02:57;23.30;99.90
4356;DHT22;64374;51.482;7.408;2023-09-18T05:05:28;23.20;99.90
4356;DHT22;64374;51.482;7.408;2023-09-18T05:07:57;23.40;99.90
4356;DHT22;64374;51.482;7.408;2023-09-18T05:10:25;23.00;99.90
4356;DHT22;64374;51.482;7.408;2023-09-18T05:12:53;22.90;99.90
4356;DHT22;64374;51.482;7.408;2023-09-18T05:15:27;22.60;99.90
4356;DHT22;64374;51.482;7.408;2023-09-18T05:17:58;22.80;99.90
4356;DHT22;64374;51.482;7.408;2023-09-18T05:20:28;23.00;99.90
4356;DHT22;64374;51.482;7.408;2023-09-18T05:23:15;23.40;99.90
4356;DHT22;64374;51.482;7.408;2023-09-18T05:26:03;23.10;99.90
4356;DHT22;64374;51.482;7.408;2023-09-18T05:28:50;23.40;99.90
4356;DHT22;64374;51.482;7.408;2023-09-18T05:31:41;22.80;99.90
4356;DHT22;64374;51.482;7.408;2023-09-18T05:34:28;22.90;99.90
4356;DHT22;64374;51.482;7.408;2023-09-18T05:37:14;22.80;99.90
4356;DHT22;64374;51.482;7.408;2023-09-18T05:40:01;22.70;99.90
4356;DHT22;64374;51.482;7.408;2023-09-18T05:42:47;22.80;99.90
4356;DHT22;64374;51.482;7.408;2023-09-18T05:45:36;22.80;99.90
4356;DHT22;64374;51.482;7.408;2023-09-18T05:48:24;22.40;99.90
4356;DHT22;64374;51.482;7.408;2023-09-18T05:51:19;22.80;99.90
4356;DHT22;64374;51.482;7.408;2023-09-18T05:54:05;22.90;99.90
4356;DHT22;64374;51.482;7.408;2023-09-18T05:56:55;22.70;99.90
4356;DHT22;64374;51.482;7.408;2023-09-18T05:59:41;22.40;99.90
4356;DHT22;64374;51.482;7.408;2023-09-18T06:02:29;22.40;99.90
4356;DHT22;64374;51.482;7.408;2023-09-18T06:05:20;22.10;99.90
4356;DHT22;64374;51.482;7.408;2023-09-18T06:08:08;22.20;99.90
4356;DHT22;64374;51.482;7.408;2023-09-18T06:10:54;22.40;99.90
4356;DHT22;64374;51.482;7.408;2023-09-18T06:13:41;22.20;99.90
4356;DHT22;64374;51.482;7.408;2023-09-18T06:16:28;22.10;99.90
4356;DHT22;64374;51.482;7.408;2023-09-18T06:19:15;21.80;99.90
4356;DHT22;64374;51.482;7.408;2023-09-18T06:22:04;22.30;99.90
4356;DHT22;64374;51.482;7.408;2023-09-18T06:24:53;22.50;99.90
4356;DHT22;64374;51.482;7.408;2023-09-18T06:27:40;22.50;99.90
4356;DHT22;64374;51.482;7.408;2023-09-18T06:30:26;22.70;99.90
4356;DHT22;64374;51.482;7.408;2023-09-18T06:33:15;22.30;99.90
4356;DHT22;64374;51.482;7.408;2023-09-18T06:36:02;22.40;99.90
4356;DHT22;64374;51.482;7.408;2023-09-18T06:38:50;22.50;99.90
4356;DHT22;64374;51.482;7.408;2023-09-18T06:41:37;22.50;99.90
4356;DHT22;64374;51.482;7.408;2023-09-18T06:44:23;22.10;99.90
4356;DHT22;64374;51.482;7.408;2023-09-18T06:47:10;22.10;99.90
4356;DHT22;64374;51.482;7.408;2023-09-18T06:49:57;21.80;99.90
4356;DHT22;64374;51.482;7.408;2023-09-18T06:52:46;21.90;99.90
4356;DHT22;64374;51.482;7.408;2023-09-18T06:55:34;21.50;99.90
4356;DHT22;64374;51.482;7.408;2023-09-18T06:58:21;21.80;99.90
4356;DHT22;64374;51.482;7.408;2023-09-18T07:01:08;21.60;99.90
4356;DHT22;64374;51.482;7.408;2023-09-18T07:03:55;22.00;99.90
4356;DHT22;64374;51.482;7.408;2023-09-18T07:06:42;22.10;99.90
4356;DHT22;64374;51.482;7.408;2023-09-18T07:09:29;22.00;99.90
4356;DHT22;64374;51.482;7.408;2023-09-18T07:12:17;21.90;99.90
4356;DHT22;64374;51.482;7.408;2023-09-18T07:15:05;22.10;99.90
4356;DHT22;64374;51.482;7.408;2023-09-18T07:17:52;21.80;99.90
4356;DHT22;64374;51.482;7.408;2023-09-18T07:20:39;22.20;99.90
4356;DHT22;64374;51.482;7.408;2023-09-18T07:23:26;22.00;99.90
4356;DHT22;64374;51.482;7.408;2023-09-18T07:26:13;22.30;99.90
4356;DHT22;64374;51.482;7.408;2023-09-18T07:29:01;22.30;99.90
4356;DHT22;64374;51.482;7.408;2023-09-18T07:31:48;22.70;99.90
4356;DHT22;64374;51.482;7.408;2023-09-18T07:34:37;22.10;99.90
4356;DHT22;64374;51.482;7.408;2023-09-18T07:37:24;22.30;99.90
4356;DHT22;64374;51.482;7.408;2023-09-18T07:40:11;22.10;99.90
4356;DHT22;64374;51.482;7.408;2023-09-18T07:42:58;22.30;99.90
4356;DHT22;64374;51.482;7.408;2023-09-18T07:45:45;22.60;99.90
4356;DHT22;64374;51.482;7.408;2023-09-18T07:48:32;22.40;99.90
4356;DHT22;64374;51.482;7.408;2023-09-18T07:51:20;22.50;99.90
4356;DHT22;64374;51.482;7.408;2023-09-18T07:54:07;22.50;99.90
4356;DHT22;64374;51.482;7.408;2023-09-18T07:56:53;22.40;99.90
4356;DHT22;64374;51.482;7.408;2023-09-18T07:59:40;22.90;99.90
4356;DHT22;64374;51.482;7.408;2023-09-18T08:02:30;23.20;99.90
4356;DHT22;64374;51.482;7.408;2023-09-18T08:05:17;23.30;99.90
4356;DHT22;64374;51.482;7.408;2023-09-18T08:08:04;22.60;99.90
4356;DHT22;64374;51.482;7.408;2023-09-18T08:10:52;23.00;99.90
4356;DHT22;64374;51.482;7.408;2023-09-18T08:13:39;23.20;99.90
4356;DHT22;64374;51.482;7.408;2023-09-18T08:16:25;22.70;99.90
4356;DHT22;64374;51.482;7.408;2023-09-18T08:19:16;22.70;99.90
4356;DHT22;64374;51.482;7.408;2023-09-18T08:22:05;22.80;99.90
4356;DHT22;64374;51.482;7.408;2023-09-18T08:24:52;23.00;99.90
4356;DHT22;64374;51.482;7.408;2023-09-18T08:27:41;22.70;99.90
4356;DHT22;64374;51.482;7.408;2023-09-18T08:30:30;22.60;99.90
4356;DHT22;64374;51.482;7.408;2023-09-18T08:33:16;22.50;99.90
4356;DHT22;64374;51.482;7.408;2023-09-18T08:36:05;22.20;99.90
4356;DHT22;64374;51.482;7.408;2023-09-18T08:38:52;22.40;99.90
4356;DHT22;64374;51.482;7.408;2023-09-18T08:41:42;22.20;99.90
4356;DHT22;64374;51.482;7.408;2023-09-18T08:44:29;22.50;99.90
4356;DHT22;64374;51.482;7.408;2023-09-18T08:47:17;22.50;99.90
4356;DHT22;64374;51.482;7.408;2023-09-18T08:50:06;22.60;99.90
4356;DHT22;64374;51.482;7.408;2023-09-18T08:52:55;22.30;99.90
4356;DHT22;64374;51.482;7.408;2023-09-18T08:55:42;22.80;99.90
4356;DHT22;64374;51.482;7.408;2023-09-18T08:58:32;22.90;99.90
4356;DHT22;64374;51.482;7.408;2023-09-18T09:01:19;22.70;99.90
4356;DHT22;64374;51.482;7.408;2023-09-18T09:04:07;22.40;99.90
4356;DHT22;64374;51.482;7.408;2023-09-18T09:06:53;22.90;99.90
4356;DHT22;64374;51.482;7.408;2023-09-18T09:09:44;22.80;99.90
4356;DHT22;64374;51.482;7.408;2023-09-18T09:12:47;22.60;99.90
4356;DHT22;64374;51.482;7.408;2023-09-18T09:15:44;22.80;99.90
4356;DHT22;64374;51.482;7.408;2023-09-18T09:18:32;22.70;99.90
4356;DHT22;64374;51.482;7.408;2023-09-18T09:21:19;22.80;99.90
4356;DHT22;64374;51.482;7.408;2023-09-18T09:24:06;23.30;99.90
4356;DHT22;64374;51.482;7.408;2023-09-18T09:26:58;23.30;99.90
4356;DHT22;64374;51.482;7.408;2023-09-18T09:29:57;23.30;99.90
4356;DHT22;64374;51.482;7.408;2023-09-18T09:32:47;22.90;99.90
4356;DHT22;64374;51.482;7.408;2023-09-18T09:35:37;23.00;99.90
4356;DHT22;64374;51.482;7.408;2023-09-18T09:38:29;23.30;99.90
4356;DHT22;64374;51.482;7.408;2023-09-18T09:41:20;23.00;99.90
4356;DHT22;64374;51.482;7.408;2023-09-18T09:44:09;23.00;99.90
4356;DHT22;64374;51.482;7.408;2023-09-18T09:46:59;22.60;99.90
4356;DHT22;64374;51.482;7.408;2023-09-18T09:49:47;23.00;99.90
4356;DHT22;64374;51.482;7.408;2023-09-18T09:52:34;22.90;99.90
4356;DHT22;64374;51.482;7.408;2023-09-18T09:55:25;22.80;99.90
4356;DHT22;64374;51.482;7.408;2023-09-18T09:58:13;23.00;99.90
4356;DHT22;64374;51.482;7.408;2023-09-18T10:01:03;22.60;99.90
4356;DHT22;64374;51.482;7.408;2023-09-18T10:03:56;22.50;99.90
4356;DHT22;64374;51.482;7.408;2023-09-18T10:06:47;22.60;99.90
4356;DHT22;64374;51.482;7.408;2023-09-18T10:09:41;22.80;99.90
4356;DHT22;64374;51.482;7.408;2023-09-18T10:12:29;22.70;99.90
4356;DHT22;64374;51.482;7.408;2023-09-18T10:15:19;23.00;99.90
4356;DHT22;64374;51.482;7.408;2023-09-18T10:18:17;22.50;99.90
4356;DHT22;64374;51.482;7.408;2023-09-18T10:21:10;22.40;99.90
4356;DHT22;64374;51.482;7.408;2023-09-18T10:24:13;22.50;99.90
4356;DHT22;64374;51.482;7.408;2023-09-18T10:27:02;22.80;99.90
4356;DHT22;64374;51.482;7.408;2023-09-18T10:29:52;23.10;99.90
4356;DHT22;64374;51.482;7.408;2023-09-18T10:32:40;23.30;99.90
4356;DHT22;64374;51.482;7.408;2023-09-18T10:35:29;23.20;99.90
4356;DHT22;64374;51.482;7.408;2023-09-18T10:38:17;23.40;99.90
4356;DHT22;64374;51.482;7.408;2023-09-18T10:41:09;23.00;99.90
4356;DHT22;64374;51.482;7.408;2023-09-18T10:43:59;23.00;99.90
4356;DHT22;64374;51.482;7.408;2023-09-18T10:46:46;23.30;99.90
4356;DHT22;64374;51.482;7.408;2023-09-18T10:49:34;23.40;99.90
4356;DHT22;64374;51.482;7.408;2023-09-18T10:52:22;23.80;99.90
4356;DHT22;64374;51.482;7.408;2023-09-18T10:55:11;23.90;99.90
4356;DHT22;64374;51.482;7.408;2023-09-18T10:57:59;24.00;99.90
4356;DHT22;64374;51.482;7.408;2023-09-18T11:00:47;23.90;99.90
4356;DHT22;64374;51.482;7.408;2023-09-18T11:03:34;24.10;99.90
4356;DHT22;64374;51.482;7.408;2023-09-18T11:06:21;23.90;99.90
4356;DHT22;64374;51.482;7.408;2023-09-18T11:09:20;24.00;99.90
4356;DHT22;64374;51.482;7.408;2023-09-18T11:12:06;23.80;99.90
4356;DHT22;64374;51.482;7.408;2023-09-18T11:14:57;24.00;99.90
4356;DHT22;64374;51.482;7.408;2023-09-18T11:17:44;24.20;99.90
4356;DHT22;64374;51.482;7.408;2023-09-18T11:20:31;24.10;99.90
4356;DHT22;64374;51.482;7.408;2023-09-18T11:23:18;24.20;99.90
4356;DHT22;64374;51.482;7.408;2023-09-18T11:26:07;24.30;99.90
4356;DHT22;64374;51.482;7.408;2023-09-18T11:28:53;24.40;99.90
4356;DHT22;64374;51.482;7.408;2023-09-18T11:31:44;24.60;99.90
4356;DHT22;64374;51.482;7.408;2023-09-18T11:34:32;24.40;99.90
4356;DHT22;64374;51.482;7.408;2023-09-18T11:37:21;24.60;99.90
4356;DHT22;64374;51.482;7.408;2023-09-18T11:40:28;24.70;99.90
4356;DHT22;64374;51.482;7.408;2023-09-18T11:43:24;25.40;99.90
4356;DHT22;64374;51.482;7.408;2023-09-18T11:46:12;25.00;99.90
4356;DHT22;64374;51.482;7.408;2023-09-18T11:49:04;25.30;99.90
4356;DHT22;64374;51.482;7.408;2023-09-18T11:51:52;25.10;99.90
4356;DHT22;64374;51.482;7.408;2023-09-18T11:54:39;25.00;99.90
4356;DHT22;64374;51.482;7.408;2023-09-18T11:57:27;25.00;99.90
4356;DHT22;64374;51.482;7.408;2023-09-18T12:00:20;25.10;99.90
4356;DHT22;64374;51.482;7.408;2023-09-18T12:03:16;25.20;99.90
4356;DHT22;64374;51.482;7.408;2023-09-18T12:06:11;25.30;99.90
4356;DHT22;64374;51.482;7.408;2023-09-18T12:08:59;25.50;99.90
4356;DHT22;64374;51.482;7.408;2023-09-18T12:11:45;25.70;99.90
4356;DHT22;64374;51.482;7.408;2023-09-18T12:14:34;25.00;99.90
4356;DHT22;64374;51.482;7.408;2023-09-18T12:17:22;24.80;99.90
4356;DHT22;64374;51.482;7.408;2023-09-18T12:20:15;25.30;99.90
4356;DHT22;64374;51.482;7.408;2023-09-18T12:23:04;24.60;99.90
4356;DHT22;64374;51.482;7.408;2023-09-18T12:25:58;25.20;99.90
4356;DHT22;64374;51.482;7.408;2023-09-18T12:28:45;25.00;99.90
4356;DHT22;64374;51.482;7.408;2023-09-18T12:31:32;24.60;99.90
4356;DHT22;64374;51.482;7.408;2023-09-18T12:34:21;24.70;99.90
4356;DHT22;64374;51.482;7.408;2023-09-18T12:37:08;24.90;99.90
4356;DHT22;64374;51.482;7.408;2023-09-18T12:39:57;25.10;99.90
4356;DHT22;64374;51.482;7.408;2023-09-18T12:42:44;24.30;99.90
4356;DHT22;64374;51.482;7.408;2023-09-18T12:45:30;24.30;99.90
4356;DHT22;64374;51.482;7.408;2023-09-18T12:48:17;24.10;99.90
4356;DHT22;64374;51.482;7.408;2023-09-18T12:51:08;23.30;99.90
4356;DHT22;64374;51.482;7.408;2023-09-18T12:53:59;22.90;99.90
4356;DHT22;64374;51.482;7.408;2023-09-18T12:56:46;22.90;99.90
4356;DHT22;64374;51.482;7.408;2023-09-18T12:59:34;23.00;99.90
4356;DHT22;64374;51.482;7.408;2023-09-18T13:02:22;23.60;99.90
4356;DHT22;64374;51.482;7.408;2023-09-18T13:05:19;24.20;99.90
4356;DHT22;64374;51.482;7.408;2023-09-18T13:08:08;24.80;99.90
4356;DHT22;64374;51.482;7.408;2023-09-18T13:10:57;25.30;99.90
4356;DHT22;64374;51.482;7.408;2023-09-18T13:13:57;25.30;99.90
4356;DHT22;64374;51.482;7.408;2023-09-18T13:16:44;25.20;99.90
4356;DHT22;64374;51.482;7.408;2023-09-18T13:19:34;25.20;99.90
4356;DHT22;64374;51.482;7.408;2023-09-18T13:22:23;24.70;99.90
4356;DHT22;64374;51.482;7.408;2023-09-18T13:25:19;25.20;99.90
4356;DHT22;64374;51.482;7.408;2023-09-18T13:28:07;25.70;99.90
4356;DHT22;64374;51.482;7.408;2023-09-18T13:30:54;26.00;99.90
4356;DHT22;64374;51.482;7.408;2023-09-18T13:33:22;25.60;99.90
4356;DHT22;64374;51.482;7.408;2023-09-18T13:35:53;25.60;99.90
4356;DHT22;64374;51.482;7.408;2023-09-18T13:38:22;26.10;99.90
4356;DHT22;64374;51.482;7.408;2023-09-18T13:40:55;25.50;99.90
4356;DHT22;64374;51.482;7.408;2023-09-18T13:43:23;26.20;99.90
4356;DHT22;64374;51.482;7.408;2023-09-18T13:45:56;26.60;99.90
4356;DHT22;64374;51.482;7.408;2023-09-18T13:48:26;26.20;99.90
4356;DHT22;64374;51.482;7.408;2023-09-18T13:50:55;26.60;99.90
4356;DHT22;64374;51.482;7.408;2023-09-18T13:53:23;26.70;99.90
4356;DHT22;64374;51.482;7.408;2023-09-18T13:55:54;27.20;99.90
4356;DHT22;64374;51.482;7.408;2023-09-18T13:58:23;26.30;99.90
4356;DHT22;64374;51.482;7.408;2023-09-18T14:00:51;27.30;99.90
4356;DHT22;64374;51.482;7.408;2023-09-18T14:03:20;28.00;99.90
4356;DHT22;64374;51.482;7.408;2023-09-18T14:05:48;28.00;99.90
4356;DHT22;64374;51.482;7.408;2023-09-18T14:08:17;28.80;99.90
4356;DHT22;64374;51.482;7.408;2023-09-18T14:10:45;28.80;99.90
4356;DHT22;64374;51.482;7.408;2023-09-18T14:13:34;28.80;99.90
4356;DHT22;64374;51.482;7.408;2023-09-18T14:16:22;28.60;99.90
4356;DHT22;64374;51.482;7.408;2023-09-18T14:19:11;28.70;99.90
4356;DHT22;64374;51.482;7.408;2023-09-18T14:21:57;28.30;99.90
4356;DHT22;64374;51.482;7.408;2023-09-18T14:24:51;27.20;99.90
4356;DHT22;64374;51.482;7.408;2023-09-18T14:27:39;27.40;99.90
4356;DHT22;64374;51.482;7.408;2023-09-18T14:30:27;26.70;99.90
4356;DHT22;64374;51.482;7.408;2023-09-18T14:33:17;26.30;99.90
4356;DHT22;64374;51.482;7.408;2023-09-18T14:36:04;25.70;99.90
4356;DHT22;64374;51.482;7.408;2023-09-18T14:38:52;25.90;99.90
4356;DHT22;64374;51.482;7.408;2023-09-18T14:41:40;25.60;99.90
4356;DHT22;64374;51.482;7.408;2023-09-18T14:44:27;25.70;99.90
4356;DHT22;64374;51.482;7.408;2023-09-18T14:47:17;25.50;99.90
4356;DHT22;64374;51.482;7.408;2023-09-18T14:50:09;25.60;99.90
4356;DHT22;64374;51.482;7.408;2023-09-18T14:52:55;26.20;99.90
4356;DHT22;64374;51.482;7.408;2023-09-18T14:55:42;26.70;99.90
4356;DHT22;64374;51.482;7.408;2023-09-18T14:58:29;27.00;99.90
4356;DHT22;64374;51.482;7.408;2023-09-18T15:01:16;27.40;99.90
4356;DHT22;64374;51.482;7.408;2023-09-18T15:04:04;26.50;99.90
4356;DHT22;64374;51.482;7.408;2023-09-18T15:06:51;27.00;99.90
4356;DHT22;64374;51.482;7.408;2023-09-18T15:09:39;26.40;99.90
4356;DHT22;64374;51.482;7.408;2023-09-18T15:12:26;27.00;99.90
4356;DHT22;64374;51.482;7.408;2023-09-18T15:15:12;27.20;99.90
4356;DHT22;64374;51.482;7.408;2023-09-18T15:17:59;27.80;99.90
4356;DHT22;64374;51.482;7.408;2023-09-18T15:20:47;28.20;99.90
4356;DHT22;64374;51.482;7.408;2023-09-18T15:23:39;28.20;99.90
4356;DHT22;64374;51.482;7.408;2023-09-18T15:26:07;28.40;99.90
4356;DHT22;64374;51.482;7.408;2023-09-18T15:28:35;27.50;99.90
4356;DHT22;64374;51.482;7.408;2023-09-18T15:31:04;27.40;99.90
4356;DHT22;64374;51.482;7.408;2023-09-18T15:33:32;26.60;99.90
4356;DHT22;64374;51.482;7.408;2023-09-18T15:36:02;26.70;99.90
4356;DHT22;64374;51.482;7.408;2023-09-18T15:38:30;26.50;99.90
4356;DHT22;64374;51.482;7.408;2023-09-18T15:40:58;26.20;99.90
4356;DHT22;64374;51.482;7.408;2023-09-18T15:43:27;26.00;99.90
4356;DHT22;64374;51.482;7.408;2023-09-18T15:45:56;26.40;99.90
4356;DHT22;64374;51.482;7.408;2023-09-18T15:48:27;26.30;99.90
4356;DHT22;64374;51.482;7.408;2023-09-18T15:50:55;26.30;99.90
4356;DHT22;64374;51.482;7.408;2023-09-18T15:53:25;26.00;99.90
4356;DHT22;64374;51.482;7.408;2023-09-18T15:55:55;26.30;99.90
4356;DHT22;64374;51.482;7.408;2023-09-18T15:58:23;26.30;99.90
4356;DHT22;64374;51.482;7.408;2023-09-18T16:01:10;25.90;99.90
4356;DHT22;64374;51.482;7.408;2023-09-18T16:03:59;25.40;99.90
4356;DHT22;64374;51.482;7.408;2023-09-18T16:06:46;25.20;99.90
4356;DHT22;64374;51.482;7.408;2023-09-18T16:09:36;25.40;99.90
4356;DHT22;64374;51.482;7.408;2023-09-18T16:12:23;25.40;99.90
4356;DHT22;64374;51.482;7.408;2023-09-18T16:15:10;25.80;99.90
4356;DHT22;64374;51.482;7.408;2023-09-18T16:17:56;25.80;99.90
4356;DHT22;64374;51.482;7.408;2023-09-18T16:20:44;25.30;99.90
4356;DHT22;64374;51.482;7.408;2023-09-18T16:23:30;25.10;99.90
4356;DHT22;64374;51.482;7.408;2023-09-18T16:26:19;25.20;99.90
4356;DHT22;64374;51.482;7.408;2023-09-18T16:29:06;25.60;99.90
4356;DHT22;64374;51.482;7.408;2023-09-18T16:31:53;25.60;99.90
4356;DHT22;64374;51.482;7.408;2023-09-18T16:34:39;25.70;99.90
4356;DHT22;64374;51.482;7.408;2023-09-18T16:37:28;25.80;99.90
4356;DHT22;64374;51.482;7.408;2023-09-18T16:40:16;25.60;99.90
4356;DHT22;64374;51.482;7.408;2023-09-18T16:43:07;25.80;99.90
4356;DHT22;64374;51.482;7.408;2023-09-18T16:45:56;26.00;99.90
4356;DHT22;64374;51.482;7.408;2023-09-18T16:48:42;25.80;99.90
4356;DHT22;64374;51.482;7.408;2023-09-18T16:51:29;25.40;99.90
4356;DHT22;64374;51.482;7.408;2023-09-18T16:54:18;25.50;99.90
4356;DHT22;64374;51.482;7.408;2023-09-18T16:57:07;25.30;99.90
4356;DHT22;64374;51.482;7.408;2023-09-18T16:59:55;25.10;99.90
4356;DHT22;64374;51.482;7.408;2023-09-18T17:02:42;25.10;99.90
4356;DHT22;64374;51.482;7.408;2023-09-18T17:05:31;24.80;99.90
4356;DHT22;64374;51.482;7.408;2023-09-18T17:08:20;25.20;99.90
4356;DHT22;64374;51.482;7.408;2023-09-18T17:11:06;25.10;99.90
4356;DHT22;64374;51.482;7.408;2023-09-18T17:13:53;24.90;99.90
4356;DHT22;64374;51.482;7.408;2023-09-18T17:16:41;25.60;99.90
4356;DHT22;64374;51.482;7.408;2023-09-18T17:19:29;25.60;99.90
4356;DHT22;64374;51.482;7.408;2023-09-18T17:22:16;25.40;99.90
4356;DHT22;64374;51.482;7.408;2023-09-18T17:25:04;25.10;99.90
4356;DHT22;64374;51.482;7.408;2023-09-18T17:27:52;24.30;99.90
4356;DHT22;64374;51.482;7.408;2023-09-18T17:30:40;24.40;99.90
4356;DHT22;64374;51.482;7.408;2023-09-18T17:33:28;24.70;99.90
4356;DHT22;64374;51.482;7.408;2023-09-18T17:36:15;24.80;99.90
4356;DHT22;64374;51.482;7.408;2023-09-18T17:39:01;24.40;99.90